Bretagne — FNBR — position and weather

sailwx.info

Track history (hours):
 
Tides and Currents Weather Stations Pressure Air Temp Water Temp Dewpoint Dewpoint Depression Visibility Wind Speed Wind Dir Waves Ship Positions

Bretagne

Operator: Brittany Ferries

Last reported at 2019-Dec-12 07:30 UTC. Time now 2019-Dec-12 08:57 UTC.
Position N 49°29' E 000°11'.

Length 151 m; beam 27 m.

Type: Ship. MMSI: 227286000.

Date/timePositionNaut miles runAvg speedWind from/ knotsBaromVisibWave heightAir tempDewpointWater temp
2019-Dec-12 07:30N 49°29' E 000°11'0 0.0
2019-Dec-12 06:01N 49°29' E 000°11'0 0.0
2019-Dec-12 04:27N 49°29' E 000°11'0 0.0
2019-Dec-12 02:00N 49°29' E 000°11'0 0.0
2019-Dec-12 01:30N 49°29' E 000°11'0 0.0
2019-Dec-12 00:30N 49°29' E 000°11'0 0.0
2019-Dec-12 00:01N 49°29' E 000°11'0 0.0
2019-Dec-11 22:30N 49°29' E 000°11'0 0.0
2019-Dec-11 21:00N 49°29' E 000°11'0 0.0
2019-Dec-11 19:30N 49°29' E 000°11'0 0.0
2019-Dec-11 10:58N 49°29' E 000°11'0 0.0
2019-Dec-11 09:01N 49°29' E 000°11'0 0.0
2019-Dec-11 07:27N 49°29' E 000°11'0 0.0
2019-Dec-11 06:00N 49°29' E 000°11'0 0.0
2019-Dec-11 04:30N 49°29' E 000°11'0 0.0
2019-Dec-11 03:27N 49°29' E 000°11'0 0.0
2019-Dec-11 03:01N 49°29' E 000°11'0 0.0
2019-Dec-10 22:58N 49°29' E 000°11'0 0.0
2019-Dec-10 21:58N 49°29' E 000°11'0 0.0
2019-Dec-10 20:30N 49°29' E 000°11'0 0.0
2019-Dec-10 18:30N 49°29' E 000°11'0 0.0
2019-Dec-10 16:27N 49°29' E 000°11'0 0.0
2019-Dec-10 14:31N 49°29' E 000°11'0 0.0
2019-Dec-10 13:00N 49°29' E 000°11'0 0.0
2019-Dec-10 12:30N 49°29' E 000°11'0 0.0
2019-Dec-10 11:30N 49°29' E 000°11'0 0.0
2019-Dec-10 10:30N 49°29' E 000°11'0 0.0
2019-Dec-10 09:27N 49°29' E 000°11'0 0.0
2019-Dec-10 09:01N 49°29' E 000°11'0 0.0
2019-Dec-10 06:27N 49°29' E 000°11'0 0.0
2019-Dec-10 04:30N 49°29' E 000°11'0 0.0
2019-Dec-10 03:30N 49°29' E 000°11'0 0.0
2019-Dec-10 03:00N 49°29' E 000°11'0 0.0
2019-Dec-10 02:00N 49°29' E 000°11'0 0.0
2019-Dec-09 22:00N 49°29' E 000°11'0 0.0
2019-Dec-09 21:00N 49°29' E 000°11'0 0.0
2019-Dec-09 20:30N 49°29' E 000°11'0 0.0
2019-Dec-09 20:00N 49°29' E 000°11'1 0.4
2019-Dec-09 18:00N 49°28' E 000°09'17515.4
2019-Dec-09 06:38N 51°58' E 002°33'35610.4
2019-Dec-07 20:25N 56°56' E 008°08'7314.2
2019-Dec-07 15:17N 57°39' E 009°56'1113.9
2019-Dec-07 14:30N 57°43' E 010°15'713.7
2019-Dec-07 14:00N 57°45' E 010°27'7 2.0
2019-Dec-07 10:25N 57°40' E 010°35'0 0.1
2019-Dec-07 09:30N 57°40' E 010°35'0 0.1
2019-Dec-07 08:30N 57°40' E 010°35'0 0.3
2019-Dec-07 07:00N 57°40' E 010°36'0 0.0
2019-Dec-07 06:30N 57°40' E 010°36'10 5.0
2019-Dec-07 04:30N 57°36' E 010°53'2214.9
2019-Dec-07 03:00N 57°25' E 011°29'2713.4
2019-Dec-07 01:00N 56°59' E 011°45'4711.0
2019-Dec-06 20:44N 56°15' E 012°16'811.6
2019-Dec-06 20:00N 56°10' E 012°28'713.1
2019-Dec-06 19:30N 56°05' E 012°36'2013.2
2019-Dec-06 18:01N 55°46' E 012°42'1211.9
2019-Dec-06 17:00N 55°34' E 012°42'1313.5
2019-Dec-06 16:01N 55°20' E 012°41'2114.0
2019-Dec-06 14:30N 55°08' E 013°11'169 8.9
2019-Dec-05 19:30N 54°57' E 018°06'9 8.8
2019-Dec-05 18:30N 54°57' E 018°21'9 8.8
2019-Dec-05 17:30N 54°56' E 018°36'1110.8
2019-Dec-05 16:30N 54°51' E 018°53'1515.3
2019-Dec-05 15:31N 54°36' E 018°55'9 4.6
2019-Dec-05 13:31N 54°29' E 018°44'4 8.4
2019-Dec-05 13:00N 54°30' E 018°51'10 2.4
2019-Dec-05 08:57N 54°22' E 018°40'0 0.0
2019-Dec-05 05:57N 54°22' E 018°40'0 0.0
2019-Dec-05 05:27N 54°22' E 018°40'0 0.0
2019-Dec-05 04:57N 54°22' E 018°40'0 0.0
2019-Dec-05 01:57N 54°22' E 018°40'0 0.0
2019-Dec-05 00:57N 54°22' E 018°40'0 0.0
2019-Dec-04 18:57N 54°22' E 018°40'0 0.0
2019-Dec-04 17:01N 54°22' E 018°40'0 0.0
2019-Dec-04 11:55N 54°22' E 018°40'0 0.0
2019-Dec-04 09:27N 54°22' E 018°40'0 0.0
2019-Dec-04 08:27N 54°22' E 018°40'0 0.0
2019-Dec-04 06:27N 54°22' E 018°40'0 0.0
2019-Dec-04 05:27N 54°22' E 018°40'0 0.0
2019-Dec-04 04:57N 54°22' E 018°40'0 0.0
2019-Dec-04 03:57N 54°22' E 018°40'0 0.0
2019-Dec-04 03:27N 54°22' E 018°40'0 0.0
2019-Dec-04 02:27N 54°22' E 018°40'0 0.0
2019-Dec-04 01:57N 54°22' E 018°40'0 0.0
2019-Dec-04 00:27N 54°22' E 018°40'0 0.0
2019-Dec-03 23:27N 54°22' E 018°40'0 0.0
2019-Dec-03 21:27N 54°22' E 018°40'0 0.0
2019-Dec-03 20:57N 54°22' E 018°40'0 0.0
2019-Dec-03 20:27N 54°22' E 018°40'0 0.0
2019-Dec-03 19:57N 54°22' E 018°40'0 0.0
2019-Dec-03 16:57N 54°22' E 018°40'0 0.0
2019-Dec-03 14:57N 54°22' E 018°40'0 0.0
2019-Dec-03 13:27N 54°22' E 018°40'0 0.0
2019-Dec-03 11:27N 54°22' E 018°40'0 0.0
2019-Dec-03 09:27N 54°22' E 018°40'0 0.0
2019-Dec-03 08:57N 54°22' E 018°40'0 0.0
2019-Dec-03 08:26N 54°22' E 018°40'0 0.0
2019-Dec-03 07:27N 54°22' E 018°40'0 0.0
2019-Dec-03 06:27N 54°22' E 018°40'0 0.0
2019-Dec-03 05:27N 54°22' E 018°40'0 0.0
2019-Dec-03 04:27N 54°22' E 018°40'0 0.0
2019-Dec-03 03:57N 54°22' E 018°40'0 0.0
2019-Dec-03 03:27N 54°22' E 018°40'0 0.0
2019-Dec-03 00:27N 54°22' E 018°40'0 0.0
2019-Dec-02 22:57N 54°22' E 018°40'0 0.0
2019-Dec-02 22:27N 54°22' E 018°40'0 0.0
2019-Dec-02 21:27N 54°22' E 018°40'0 0.0
2019-Dec-02 19:27N 54°22' E 018°40'0 0.0
2019-Dec-02 18:57N 54°22' E 018°40'0 0.0
2019-Dec-02 18:27N 54°22' E 018°40'0 0.0
2019-Dec-02 17:27N 54°22' E 018°40'0 0.0
2019-Dec-02 16:57N 54°22' E 018°40'0 0.0
2019-Dec-02 15:56N 54°22' E 018°40'0 0.0
2019-Dec-02 12:57N 54°22' E 018°40'0 0.0
2019-Dec-02 11:26N 54°22' E 018°40'0 0.0
2019-Dec-02 08:27N 54°22' E 018°40'  
Track history (hours):
 
Tides and Currents Weather Stations Pressure Air Temp Water Temp Dewpoint Dewpoint Depression Visibility Wind Speed Wind Dir Waves Ship Positions

Bretagne

Operator: Brittany Ferries

Last reported at 2019-Dec-12 07:30 UTC. Time now 2019-Dec-12 08:57 UTC.
Position N 49°29' E 000°11'.

Length 151 m; beam 27 m.

Type: Ship. MMSI: 227286000.

Date/timePositionNaut miles runAvg speedWind from/ knotsBaromVisibWave heightAir tempDewpointWater temp
2019-Dec-12 07:30N 49°29' E 000°11'0 0.0
2019-Dec-12 06:01N 49°29' E 000°11'0 0.0
2019-Dec-12 04:27N 49°29' E 000°11'0 0.0
2019-Dec-12 02:00N 49°29' E 000°11'0 0.0
2019-Dec-12 01:30N 49°29' E 000°11'0 0.0
2019-Dec-12 00:30N 49°29' E 000°11'0 0.0
2019-Dec-12 00:01N 49°29' E 000°11'0 0.0
2019-Dec-11 22:30N 49°29' E 000°11'0 0.0
2019-Dec-11 21:00N 49°29' E 000°11'0 0.0
2019-Dec-11 19:30N 49°29' E 000°11'0 0.0
2019-Dec-11 10:58N 49°29' E 000°11'0 0.0
2019-Dec-11 09:01N 49°29' E 000°11'0 0.0
2019-Dec-11 07:27N 49°29' E 000°11'0 0.0
2019-Dec-11 06:00N 49°29' E 000°11'0 0.0
2019-Dec-11 04:30N 49°29' E 000°11'0 0.0
2019-Dec-11 03:27N 49°29' E 000°11'0 0.0
2019-Dec-11 03:01N 49°29' E 000°11'0 0.0
2019-Dec-10 22:58N 49°29' E 000°11'0 0.0
2019-Dec-10 21:58N 49°29' E 000°11'0 0.0
2019-Dec-10 20:30N 49°29' E 000°11'0 0.0
2019-Dec-10 18:30N 49°29' E 000°11'0 0.0
2019-Dec-10 16:27N 49°29' E 000°11'0 0.0
2019-Dec-10 14:31N 49°29' E 000°11'0 0.0
2019-Dec-10 13:00N 49°29' E 000°11'0 0.0
2019-Dec-10 12:30N 49°29' E 000°11'0 0.0
2019-Dec-10 11:30N 49°29' E 000°11'0 0.0
2019-Dec-10 10:30N 49°29' E 000°11'0 0.0
2019-Dec-10 09:27N 49°29' E 000°11'0 0.0
2019-Dec-10 09:01N 49°29' E 000°11'0 0.0
2019-Dec-10 06:27N 49°29' E 000°11'0 0.0
2019-Dec-10 04:30N 49°29' E 000°11'0 0.0
2019-Dec-10 03:30N 49°29' E 000°11'0 0.0
2019-Dec-10 03:00N 49°29' E 000°11'0 0.0
2019-Dec-10 02:00N 49°29' E 000°11'0 0.0
2019-Dec-09 22:00N 49°29' E 000°11'0 0.0
2019-Dec-09 21:00N 49°29' E 000°11'0 0.0
2019-Dec-09 20:30N 49°29' E 000°11'0 0.0
2019-Dec-09 20:00N 49°29' E 000°11'1 0.4
2019-Dec-09 18:00N 49°28' E 000°09'17515.4
2019-Dec-09 06:38N 51°58' E 002°33'35610.4
2019-Dec-07 20:25N 56°56' E 008°08'7314.2
2019-Dec-07 15:17N 57°39' E 009°56'1113.9
2019-Dec-07 14:30N 57°43' E 010°15'713.7
2019-Dec-07 14:00N 57°45' E 010°27'7 2.0
2019-Dec-07 10:25N 57°40' E 010°35'0 0.1
2019-Dec-07 09:30N 57°40' E 010°35'0 0.1
2019-Dec-07 08:30N 57°40' E 010°35'0 0.3
2019-Dec-07 07:00N 57°40' E 010°36'0 0.0
2019-Dec-07 06:30N 57°40' E 010°36'10 5.0
2019-Dec-07 04:30N 57°36' E 010°53'2214.9
2019-Dec-07 03:00N 57°25' E 011°29'2713.4
2019-Dec-07 01:00N 56°59' E 011°45'4711.0
2019-Dec-06 20:44N 56°15' E 012°16'811.6
2019-Dec-06 20:00N 56°10' E 012°28'713.1
2019-Dec-06 19:30N 56°05' E 012°36'2013.2
2019-Dec-06 18:01N 55°46' E 012°42'1211.9
2019-Dec-06 17:00N 55°34' E 012°42'1313.5
2019-Dec-06 16:01N 55°20' E 012°41'2114.0
2019-Dec-06 14:30N 55°08' E 013°11'169 8.9
2019-Dec-05 19:30N 54°57' E 018°06'9 8.8
2019-Dec-05 18:30N 54°57' E 018°21'9 8.8
2019-Dec-05 17:30N 54°56' E 018°36'1110.8
2019-Dec-05 16:30N 54°51' E 018°53'1515.3
2019-Dec-05 15:31N 54°36' E 018°55'9 4.6
2019-Dec-05 13:31N 54°29' E 018°44'4 8.4
2019-Dec-05 13:00N 54°30' E 018°51'10 2.4
2019-Dec-05 08:57N 54°22' E 018°40'0 0.0
2019-Dec-05 05:57N 54°22' E 018°40'0 0.0
2019-Dec-05 05:27N 54°22' E 018°40'0 0.0
2019-Dec-05 04:57N 54°22' E 018°40'0 0.0
2019-Dec-05 01:57N 54°22' E 018°40'0 0.0
2019-Dec-05 00:57N 54°22' E 018°40'0 0.0
2019-Dec-04 18:57N 54°22' E 018°40'0 0.0
2019-Dec-04 17:01N 54°22' E 018°40'0 0.0
2019-Dec-04 11:55N 54°22' E 018°40'0 0.0
2019-Dec-04 09:27N 54°22' E 018°40'0 0.0
2019-Dec-04 08:27N 54°22' E 018°40'0 0.0
2019-Dec-04 06:27N 54°22' E 018°40'0 0.0
2019-Dec-04 05:27N 54°22' E 018°40'0 0.0
2019-Dec-04 04:57N 54°22' E 018°40'0 0.0
2019-Dec-04 03:57N 54°22' E 018°40'0 0.0
2019-Dec-04 03:27N 54°22' E 018°40'0 0.0
2019-Dec-04 02:27N 54°22' E 018°40'0 0.0
2019-Dec-04 01:57N 54°22' E 018°40'0 0.0
2019-Dec-04 00:27N 54°22' E 018°40'0 0.0
2019-Dec-03 23:27N 54°22' E 018°40'0 0.0
2019-Dec-03 21:27N 54°22' E 018°40'0 0.0
2019-Dec-03 20:57N 54°22' E 018°40'0 0.0
2019-Dec-03 20:27N 54°22' E 018°40'0 0.0
2019-Dec-03 19:57N 54°22' E 018°40'0 0.0
2019-Dec-03 16:57N 54°22' E 018°40'0 0.0
2019-Dec-03 14:57N 54°22' E 018°40'0 0.0
2019-Dec-03 13:27N 54°22' E 018°40'0 0.0
2019-Dec-03 11:27N 54°22' E 018°40'0 0.0
2019-Dec-03 09:27N 54°22' E 018°40'0 0.0
2019-Dec-03 08:57N 54°22' E 018°40'0 0.0
2019-Dec-03 08:26N 54°22' E 018°40'0 0.0
2019-Dec-03 07:27N 54°22' E 018°40'0 0.0
2019-Dec-03 06:27N 54°22' E 018°40'0 0.0
2019-Dec-03 05:27N 54°22' E 018°40'0 0.0
2019-Dec-03 04:27N 54°22' E 018°40'0 0.0
2019-Dec-03 03:57N 54°22' E 018°40'0 0.0
2019-Dec-03 03:27N 54°22' E 018°40'0 0.0
2019-Dec-03 00:27N 54°22' E 018°40'0 0.0
2019-Dec-02 22:57N 54°22' E 018°40'0 0.0
2019-Dec-02 22:27N 54°22' E 018°40'0 0.0
2019-Dec-02 21:27N 54°22' E 018°40'0 0.0
2019-Dec-02 19:27N 54°22' E 018°40'0 0.0
2019-Dec-02 18:57N 54°22' E 018°40'0 0.0
2019-Dec-02 18:27N 54°22' E 018°40'0 0.0
2019-Dec-02 17:27N 54°22' E 018°40'0 0.0
2019-Dec-02 16:57N 54°22' E 018°40'0 0.0
2019-Dec-02 15:56N 54°22' E 018°40'0 0.0
2019-Dec-02 12:57N 54°22' E 018°40'0 0.0
2019-Dec-02 11:26N 54°22' E 018°40'0 0.0
2019-Dec-02 08:27N 54°22' E 018°40'  

Dump ship's entire track history